Time;durP1;ratioP1;P1;durP2;ratioP2;P2;SDS_P1;SDS_P2;PMS_P1;PMS_P2;Temp;Humidity;BMP_temperature;BMP_pressure;BME280_temperature;BME280_humidity;BME280_pressure;Samples;Min_cycle;Max_cycle;Signal;HPM_P1;HPM_P2
2021/08/17 00:01:09;;;;;;;15.27;3.63;;;13.60;99.90;;;;;;5096799;28;20392;-71
2021/08/17 00:03:35;;;;;;;15.35;3.28;;;13.70;99.90;;;;;;5114331;28;20024;-71
2021/08/17 00:06:01;;;;;;;15.02;2.88;;;13.70;99.90;;;;;;5114927;28;20023;-71
2021/08/17 00:08:27;;;;;;;10.85;3.33;;;13.70;99.90;;;;;;5114001;28;20473;-71
2021/08/17 00:10:53;;;;;;;13.90;3.17;;;13.70;99.90;;;;;;5113503;28;20047;-71
2021/08/17 00:13:20;;;;;;;14.88;3.65;;;13.80;99.90;;;;;;5115076;28;20086;-72
2021/08/17 00:15:46;;;;;;;19.75;4.07;;;13.80;99.90;;;;;;5115360;28;20020;-71
2021/08/17 00:18:12;;;;;;;14.48;3.67;;;13.80;99.90;;;;;;5113512;28;20035;-72
2021/08/17 00:20:37;;;;;;;16.83;3.88;;;13.80;99.90;;;;;;5115208;28;20035;-71
2021/08/17 00:23:06;;;;;;;14.45;3.92;;;13.80;99.90;;;;;;5114152;28;20066;-71
2021/08/17 00:25:33;;;;;;;14.77;3.63;;;13.80;99.90;;;;;;5114538;28;20443;-71
2021/08/17 00:27:58;;;;;;;10.75;3.22;;;13.80;99.90;;;;;;5114506;28;20023;-72
2021/08/17 00:30:24;;;;;;;14.27;3.45;;;13.90;99.90;;;;;;5114720;28;20396;-71
2021/08/17 00:32:50;;;;;;;12.20;3.03;;;13.90;99.90;;;;;;5114982;28;20028;-71
2021/08/17 00:35:16;;;;;;;15.60;4.32;;;13.90;99.90;;;;;;5113806;28;20020;-71
2021/08/17 00:37:41;;;;;;;12.02;3.72;;;13.90;99.90;;;;;;5113466;28;20026;-71
2021/08/17 00:40:07;;;;;;;12.38;3.47;;;13.80;99.90;;;;;;5113018;28;20031;-72
2021/08/17 00:42:40;;;;;;;13.48;3.20;;;13.70;99.90;;;;;;5114854;28;20027;-71
2021/08/17 00:45:07;;;;;;;14.15;3.88;;;13.60;99.90;;;;;;5114804;28;20023;-71
2021/08/17 00:47:33;;;;;;;15.35;3.50;;;13.60;99.90;;;;;;5114749;28;20479;-71
2021/08/17 00:49:59;;;;;;;12.43;3.65;;;13.50;99.90;;;;;;5114622;28;20099;-71
2021/08/17 00:52:24;;;;;;;15.52;3.67;;;13.50;99.90;;;;;;5114666;28;20361;-72
2021/08/17 00:54:51;;;;;;;16.63;3.95;;;13.40;99.90;;;;;;5113157;28;20362;-72
2021/08/17 00:57:17;;;;;;;19.70;3.80;;;13.30;99.90;;;;;;5114352;28;20023;-71
2021/08/17 00:59:43;;;;;;;12.93;3.35;;;13.20;99.90;;;;;;5114578;28;20365;-71
2021/08/17 01:02:08;;;;;;;10.32;3.47;;;13.30;99.90;;;;;;5114516;28;20028;-72
2021/08/17 01:04:35;;;;;;;21.33;4.00;;;13.30;99.90;;;;;;5114546;28;20423;-71
2021/08/17 01:07:02;;;;;;;13.85;3.25;;;13.30;99.90;;;;;;5114480;28;20041;-72
2021/08/17 01:09:28;;;;;;;18.08;3.85;;;13.30;99.90;;;;;;5113013;28;20040;-71
2021/08/17 01:11:54;;;;;;;8.48;3.15;;;13.40;99.90;;;;;;5113837;28;20023;-71
2021/08/17 01:14:20;;;;;;;14.23;3.67;;;13.30;99.90;;;;;;5113208;28;20476;-71
2021/08/17 01:16:46;;;;;;;17.50;3.80;;;13.40;99.90;;;;;;5113203;28;20468;-71
2021/08/17 01:19:13;;;;;;;14.27;3.22;;;13.30;99.90;;;;;;5113168;28;20051;-71
2021/08/17 01:21:39;;;;;;;12.05;3.65;;;13.30;99.90;;;;;;5112838;28;20047;-72
2021/08/17 01:24:05;;;;;;;12.38;3.75;;;13.30;99.90;;;;;;5112721;28;20468;-71
2021/08/17 01:26:31;;;;;;;17.33;4.18;;;13.30;99.90;;;;;;5113999;28;20023;-71
2021/08/17 01:28:57;;;;;;;16.90;4.30;;;13.30;99.90;;;;;;5112451;28;20552;-71
2021/08/17 01:31:24;;;;;;;13.93;4.03;;;13.20;99.90;;;;;;5112731;28;20027;-71
2021/08/17 01:33:50;;;;;;;16.20;3.97;;;13.30;99.90;;;;;;5114233;28;20061;-71
2021/08/17 01:36:16;;;;;;;18.75;4.53;;;13.40;99.90;;;;;;5114233;28;20073;-71
2021/08/17 01:38:47;;;;;;;16.80;4.10;;;13.30;99.90;;;;;;5114146;28;20023;-70
2021/08/17 01:41:13;;;;;;;13.52;3.50;;;13.30;99.90;;;;;;5114167;28;20454;-71
2021/08/17 01:43:38;;;;;;;13.85;4.00;;;13.30;99.90;;;;;;5114118;28;20030;-71
2021/08/17 01:46:04;;;;;;;14.40;3.75;;;13.30;99.90;;;;;;5114101;28;20057;-71
2021/08/17 01:48:31;;;;;;;15.68;4.05;;;13.30;99.90;;;;;;5114059;28;20028;-71
2021/08/17 01:50:58;;;;;;;20.63;4.10;;;13.40;99.90;;;;;;5112498;28;20020;-71
2021/08/17 01:53:27;;;;;;;16.80;3.90;;;13.40;99.90;;;;;;5115043;28;20054;-71
2021/08/17 01:55:53;;;;;;;18.33;4.85;;;13.40;99.90;;;;;;5116283;28;20068;-71
2021/08/17 01:58:22;;;;;;;15.20;3.72;;;13.40;99.90;;;;;;5117969;28;20015;-71
2021/08/17 02:00:48;;;;;;;15.55;4.30;;;13.40;99.90;;;;;;5117329;28;20031;-71
2021/08/17 02:03:13;;;;;;;17.65;3.90;;;13.40;99.90;;;;;;5116457;28;20031;-71
2021/08/17 02:05:39;;;;;;;16.15;4.13;;;13.40;99.90;;;;;;5099026;28;20046;-71
2021/08/17 02:08:05;;;;;;;15.10;4.15;;;13.40;99.90;;;;;;5117520;28;20069;-71
2021/08/17 02:10:31;;;;;;;16.02;4.32;;;13.40;99.90;;;;;;5117684;28;20047;-71
2021/08/17 02:12:56;;;;;;;16.30;4.63;;;13.40;99.90;;;;;;5115968;28;20027;-71
2021/08/17 02:15:22;;;;;;;20.33;5.03;;;13.40;99.90;;;;;;5117364;28;20023;-71
2021/08/17 02:17:48;;;;;;;15.68;4.70;;;13.40;99.90;;;;;;5116456;28;20361;-71
2021/08/17 02:20:13;;;;;;;18.27;4.75;;;13.40;99.90;;;;;;5117587;28;20361;-71
2021/08/17 02:22:39;;;;;;;15.05;4.47;;;13.40;99.90;;;;;;5117507;28;20136;-72
2021/08/17 02:25:06;;;;;;;14.77;4.40;;;13.30;99.90;;;;;;5117211;28;20028;-71
2021/08/17 02:27:36;;;;;;;18.55;4.80;;;13.40;99.90;;;;;;5115993;28;20024;-72
2021/08/17 02:30:03;;;;;;;23.25;4.63;;;13.30;99.90;;;;;;5115840;28;20085;-71
2021/08/17 02:32:28;;;;;;;16.80;4.32;;;13.30;99.90;;;;;;5117054;28;20012;-72
2021/08/17 02:34:54;;;;;;;22.88;4.65;;;13.30;99.90;;;;;;5116993;28;20027;-72
2021/08/17 02:37:20;;;;;;;22.10;4.80;;;13.30;99.90;;;;;;5116679;28;20111;-71
2021/08/17 02:39:45;;;;;;;15.77;4.97;;;13.30;99.90;;;;;;5115997;28;20019;-71
2021/08/17 02:42:11;;;;;;;13.60;5.05;;;13.30;99.90;;;;;;5117087;28;20038;-71
2021/08/17 02:44:36;;;;;;;16.70;4.50;;;13.30;99.90;;;;;;5115888;28;20036;-71
2021/08/17 02:47:03;;;;;;;19.40;4.53;;;13.30;99.90;;;;;;5115173;28;20023;-71
2021/08/17 02:49:29;;;;;;;19.67;5.32;;;13.30;99.90;;;;;;5116903;28;20128;-71
2021/08/17 02:51:54;;;;;;;17.75;5.82;;;13.30;99.90;;;;;;5116855;28;20024;-71
2021/08/17 02:54:20;;;;;;;15.10;5.10;;;13.30;99.90;;;;;;5116917;28;20495;-71
2021/08/17 02:56:46;;;;;;;19.98;5.85;;;13.30;99.90;;;;;;5116848;28;20103;-71
2021/08/17 02:59:11;;;;;;;15.50;4.57;;;13.30;99.90;;;;;;5116792;28;20016;-71
2021/08/17 03:01:37;;;;;;;17.00;5.20;;;13.30;99.90;;;;;;5116172;28;20180;-72
2021/08/17 03:04:02;;;;;;;14.38;4.90;;;13.30;99.90;;;;;;5116358;28;20478;-71
2021/08/17 03:06:28;;;;;;;14.02;4.65;;;13.30;99.90;;;;;;5116673;28;20131;-71
2021/08/17 03:08:53;;;;;;;20.05;6.38;;;13.30;99.90;;;;;;5116614;28;20024;-71
2021/08/17 03:11:19;;;;;;;17.30;4.60;;;13.30;99.90;;;;;;5115789;28;20050;-71
2021/08/17 03:13:44;;;;;;;15.07;4.85;;;13.30;99.90;;;;;;5116493;28;20041;-71
2021/08/17 03:16:10;;;;;;;12.65;4.43;;;13.30;99.90;;;;;;5115031;28;20019;-71
2021/08/17 03:18:35;;;;;;;18.48;4.60;;;13.30;99.90;;;;;;5115419;28;20521;-72
2021/08/17 03:21:01;;;;;;;16.65;4.80;;;13.30;99.90;;;;;;5115163;28;20027;-71
2021/08/17 03:23:27;;;;;;;12.38;4.47;;;13.30;99.90;;;;;;5097565;28;20027;-72
2021/08/17 03:25:55;;;;;;;15.85;4.45;;;13.30;99.90;;;;;;5114524;28;20481;-71
2021/08/17 03:28:21;;;;;;;16.35;4.95;;;13.30;99.90;;;;;;5116216;28;20051;-71
2021/08/17 03:30:46;;;;;;;13.00;4.68;;;13.30;99.90;;;;;;5114585;28;20058;-72
2021/08/17 03:33:12;;;;;;;17.17;5.45;;;13.30;99.90;;;;;;5115500;28;20023;-72
2021/08/17 03:35:37;;;;;;;24.00;4.82;;;13.20;99.90;;;;;;5115993;28;20031;-72
2021/08/17 03:38:03;;;;;;;17.05;5.25;;;13.20;99.90;;;;;;5114119;28;20072;-72
2021/08/17 03:40:28;;;;;;;17.40;5.28;;;13.20;99.90;;;;;;5115983;28;20107;-72
2021/08/17 03:42:54;;;;;;;16.75;4.85;;;13.10;99.90;;;;;;5114541;28;20032;-71
2021/08/17 03:45:21;;;;;;;15.98;4.95;;;13.10;99.90;;;;;;5115707;28;20076;-72
2021/08/17 03:47:47;;;;;;;17.17;5.72;;;13.10;99.90;;;;;;5115906;28;20023;-71
2021/08/17 03:50:15;;;;;;;22.90;5.63;;;13.10;99.90;;;;;;5096913;28;20487;-71
2021/08/17 03:52:41;;;;;;;16.20;5.13;;;13.10;99.90;;;;;;5115848;28;20016;-71
2021/08/17 03:55:08;;;;;;;13.73;5.57;;;13.00;99.90;;;;;;5114609;28;20019;-71
2021/08/17 03:57:33;;;;;;;17.92;5.43;;;13.00;99.90;;;;;;5115813;28;20101;-71
2021/08/17 03:59:59;;;;;;;18.30;5.90;;;12.90;99.90;;;;;;5115647;28;20051;-72
2021/08/17 04:02:24;;;;;;;20.10;5.30;;;12.90;99.90;;;;;;5115611;28;20073;-71
2021/08/17 04:04:50;;;;;;;17.17;5.78;;;12.80;99.90;;;;;;5114035;28;20023;-71
2021/08/17 04:07:16;;;;;;;16.20;6.85;;;12.80;99.90;;;;;;5115512;28;20029;-71
2021/08/17 04:09:41;;;;;;;19.73;7.20;;;12.70;99.90;;;;;;5113570;28;20047;-71
2021/08/17 04:12:07;;;;;;;21.90;7.20;;;12.70;99.90;;;;;;5114874;28;20126;-71
2021/08/17 04:14:32;;;;;;;22.55;8.18;;;12.70;99.90;;;;;;5115038;28;20023;-71
2021/08/17 04:16:58;;;;;;;25.10;7.47;;;12.70;99.90;;;;;;5114938;28;20020;-71
2021/08/17 04:19:25;;;;;;;20.25;7.97;;;12.70;99.90;;;;;;5115310;28;20027;-71
2021/08/17 04:21:51;;;;;;;24.80;9.38;;;12.60;99.90;;;;;;5114898;28;20020;-71
2021/08/17 04:24:17;;;;;;;19.83;9.07;;;12.60;99.90;;;;;;5115190;28;20020;-71
2021/08/17 04:26:42;;;;;;;25.75;9.55;;;12.50;99.90;;;;;;5115165;28;20032;-71
2021/08/17 04:29:08;;;;;;;31.55;10.32;;;12.50;99.90;;;;;;5114834;28;20103;-71
2021/08/17 04:31:34;;;;;;;30.73;11.45;;;12.40;99.90;;;;;;5114433;28;20388;-71
2021/08/17 04:33:59;;;;;;;28.17;11.18;;;12.40;99.90;;;;;;5114430;28;20027;-71
2021/08/17 04:36:25;;;;;;;27.98;12.60;;;12.30;99.90;;;;;;5114963;28;20041;-71
2021/08/17 04:38:50;;;;;;;31.08;12.90;;;12.30;99.90;;;;;;5114385;28;20034;-71
2021/08/17 04:41:16;;;;;;;32.55;13.05;;;12.20;99.90;;;;;;5114647;28;20024;-71
2021/08/17 04:43:41;;;;;;;31.52;13.60;;;12.20;99.90;;;;;;5114284;28;20027;-71
2021/08/17 04:46:07;;;;;;;43.10;15.95;;;12.20;99.90;;;;;;5113022;28;20063;-71
2021/08/17 04:48:32;;;;;;;41.30;16.23;;;12.10;99.90;;;;;;5114790;28;20456;-71
2021/08/17 04:50:58;;;;;;;38.95;15.50;;;12.10;99.90;;;;;;5112852;28;20038;-71
2021/08/17 04:53:25;;;;;;;37.70;15.63;;;12.20;99.90;;;;;;5114436;28;20019;-71
2021/08/17 04:55:51;;;;;;;41.58;16.10;;;12.10;99.90;;;;;;5114404;28;20024;-71
2021/08/17 04:58:16;;;;;;;45.35;17.70;;;12.10;99.90;;;;;;5113521;28;20069;-71
2021/08/17 05:00:44;;;;;;;41.45;17.02;;;12.10;99.90;;;;;;5113161;28;20076;-71
2021/08/17 05:03:10;;;;;;;40.55;17.20;;;12.10;99.90;;;;;;5114606;28;20481;-71
2021/08/17 05:05:35;;;;;;;45.70;17.63;;;12.20;99.90;;;;;;5114455;28;20103;-70
2021/08/17 05:08:09;;;;;;;43.60;17.75;;;12.20;99.90;;;;;;5114501;28;20024;-71
2021/08/17 05:10:35;;;;;;;45.50;17.80;;;12.20;99.90;;;;;;5095607;28;20048;-72
2021/08/17 05:13:03;;;;;;;47.10;17.83;;;12.20;99.90;;;;;;5113466;28;20023;-71
2021/08/17 05:15:30;;;;;;;52.30;19.65;;;12.20;99.90;;;;;;5095931;28;20392;-70
2021/08/17 05:17:55;;;;;;;43.63;17.85;;;12.30;99.90;;;;;;5113917;28;20012;-71
2021/08/17 05:20:21;;;;;;;45.28;17.92;;;12.30;99.90;;;;;;5114321;28;20136;-71
2021/08/17 05:22:47;;;;;;;40.50;18.08;;;12.30;99.90;;;;;;5113088;28;20031;-71
2021/08/17 05:25:13;;;;;;;50.08;18.48;;;12.40;99.90;;;;;;5112475;28;20019;-72
2021/08/17 05:27:39;;;;;;;49.17;18.00;;;12.50;99.90;;;;;;5115544;28;20028;-71
2021/08/17 05:30:05;;;;;;;45.45;17.85;;;12.60;99.90;;;;;;5118161;28;20039;-71
2021/08/17 05:32:31;;;;;;;45.85;17.83;;;12.70;99.90;;;;;;5117904;28;20103;-71
2021/08/17 05:34:57;;;;;;;48.70;19.67;;;12.80;99.90;;;;;;5116664;28;20055;-71
2021/08/17 05:37:23;;;;;;;46.67;19.10;;;12.90;99.90;;;;;;5118437;28;20023;-71
2021/08/17 05:39:48;;;;;;;42.13;17.83;;;13.00;99.90;;;;;;5117805;28;20042;-71
2021/08/17 05:42:14;;;;;;;41.60;17.33;;;13.20;99.90;;;;;;5099937;28;20066;-71
2021/08/17 05:44:41;;;;;;;42.38;17.95;;;13.40;99.90;;;;;;5118215;28;20091;-71
2021/08/17 05:47:07;;;;;;;39.83;17.55;;;13.70;99.90;;;;;;5118139;28;20042;-71
2021/08/17 05:49:36;;;;;;;34.72;15.45;;;14.10;99.90;;;;;;5118067;28;20024;-71
2021/08/17 05:52:02;;;;;;;38.47;16.42;;;14.50;99.90;;;;;;5116551;28;20034;-72
2021/08/17 05:54:28;;;;;;;34.30;15.70;;;15.20;99.90;;;;;;5117953;28;20073;-72
2021/08/17 05:56:53;;;;;;;35.97;15.32;;;15.80;99.90;;;;;;5117953;28;20023;-72
2021/08/17 05:59:19;;;;;;;37.65;14.57;;;15.80;99.90;;;;;;5116367;28;20020;-72
2021/08/17 06:01:44;;;;;;;29.73;14.30;;;16.50;99.90;;;;;;5117871;28;20035;-72
2021/08/17 06:04:10;;;;;;;31.65;14.27;;;16.50;99.90;;;;;;5117854;28;20114;-72
2021/08/17 06:06:35;;;;;;;33.70;14.23;;;16.20;99.90;;;;;;5099456;28;20066;-72
2021/08/17 06:09:01;;;;;;;32.25;14.45;;;15.90;99.90;;;;;;5117639;28;20027;-72
2021/08/17 06:11:26;;;;;;;32.30;15.40;;;15.40;99.90;;;;;;5115621;28;20067;-72
2021/08/17 06:13:53;;;;;;;36.33;15.80;;;15.70;99.90;;;;;;5116092;28;20453;-72
2021/08/17 06:16:18;;;;;;;31.63;14.30;;;15.30;99.90;;;;;;5116956;28;20027;-71
2021/08/17 06:18:44;;;;;;;34.67;14.38;;;15.50;99.90;;;;;;5117020;28;20030;-72
2021/08/17 06:21:09;;;;;;;31.35;15.60;;;16.10;99.90;;;;;;5117174;28;20062;-71
2021/08/17 06:23:35;;;;;;;34.28;15.40;;;16.20;99.90;;;;;;5117398;28;20028;-72
2021/08/17 06:26:01;;;;;;;31.75;14.38;;;16.20;99.90;;;;;;5116765;28;20027;-72
2021/08/17 06:28:27;;;;;;;37.85;16.15;;;16.10;99.90;;;;;;5115911;28;20156;-72
2021/08/17 06:30:54;;;;;;;34.25;15.95;;;15.60;99.90;;;;;;5118075;28;20477;-72
2021/08/17 06:33:21;;;;;;;43.30;17.55;;;15.30;99.90;;;;;;5116253;28;20020;-72
2021/08/17 06:35:50;;;;;;;33.00;15.85;;;15.10;99.90;;;;;;5117209;28;20015;-72
2021/08/17 06:38:16;;;;;;;38.88;18.27;;;15.00;99.90;;;;;;5115824;28;20026;-72
2021/08/17 06:40:42;;;;;;;40.38;17.13;;;15.10;99.90;;;;;;5116875;28;20403;-71
2021/08/17 06:43:07;;;;;;;44.05;17.85;;;15.20;99.90;;;;;;5105117;28;20111;-67
2021/08/17 06:45:33;;;;;;;39.67;17.33;;;15.40;99.90;;;;;;5094791;28;20481;-67
2021/08/17 06:47:58;;;;;;;40.65;18.05;;;15.60;99.90;;;;;;5095439;28;20031;-67
2021/08/17 06:50:24;;;;;;;38.00;16.73;;;15.90;99.90;;;;;;5093024;28;20019;-67
2021/08/17 06:52:50;;;;;;;34.35;17.25;;;16.40;99.90;;;;;;5093142;28;20024;-67
2021/08/17 06:55:16;;;;;;;37.30;16.98;;;16.40;99.90;;;;;;5094163;28;20024;-67
2021/08/17 06:57:42;;;;;;;38.17;17.88;;;16.80;99.90;;;;;;5094785;28;20028;-68
2021/08/17 07:00:10;;;;;;;31.88;16.42;;;17.20;99.90;;;;;;5095493;28;20024;-67
2021/08/17 07:02:36;;;;;;;34.42;16.17;;;17.20;99.90;;;;;;5092828;28;20462;-67
2021/08/17 07:05:03;;;;;;;34.10;17.05;;;16.90;99.90;;;;;;5094114;28;20047;-67
2021/08/17 07:07:28;;;;;;;32.72;16.65;;;17.00;99.90;;;;;;5095491;28;20119;-67
2021/08/17 07:09:54;;;;;;;38.13;17.13;;;16.70;99.90;;;;;;5093404;28;20450;-67
2021/08/17 07:12:19;;;;;;;32.17;17.10;;;16.90;99.90;;;;;;5095032;28;20024;-66
2021/08/17 07:14:45;;;;;;;39.00;18.50;;;17.20;99.90;;;;;;5095578;28;20031;-66
2021/08/17 07:17:11;;;;;;;36.97;18.20;;;17.20;99.90;;;;;;5095047;28;20468;-67
2021/08/17 07:19:37;;;;;;;36.65;18.77;;;16.60;99.90;;;;;;5094571;28;20416;-67
2021/08/17 07:22:02;;;;;;;41.40;18.55;;;16.50;99.90;;;;;;5095949;28;20028;-67
2021/08/17 07:24:29;;;;;;;38.03;18.50;;;16.30;99.90;;;;;;5095759;28;20057;-67
2021/08/17 07:26:55;;;;;;;42.53;19.80;;;16.00;99.90;;;;;;5095496;28;20028;-67
2021/08/17 07:29:21;;;;;;;39.97;17.67;;;15.80;99.90;;;;;;5095337;28;20024;-67
2021/08/17 07:31:46;;;;;;;40.40;17.60;;;15.80;99.90;;;;;;5094991;28;20082;-67
2021/08/17 07:34:12;;;;;;;43.30;19.70;;;16.00;99.90;;;;;;5094688;28;20423;-67
2021/08/17 07:36:38;;;;;;;39.58;18.42;;;16.50;99.90;;;;;;5093379;28;20024;-67
2021/08/17 07:39:05;;;;;;;40.00;18.48;;;17.10;99.90;;;;;;5094930;28;20020;-67
2021/08/17 07:41:31;;;;;;;37.10;18.10;;;17.20;99.90;;;;;;5094865;28;20028;-67
2021/08/17 07:43:56;;;;;;;38.03;18.15;;;17.00;99.90;;;;;;5095227;28;20028;-66
2021/08/17 07:46:22;;;;;;;38.45;19.13;;;17.00;99.90;;;;;;5093885;28;20534;-66
2021/08/17 07:48:48;;;;;;;37.78;19.65;;;17.00;99.90;;;;;;5095385;28;20031;-66
2021/08/17 07:51:14;;;;;;;40.13;21.13;;;16.70;99.90;;;;;;5094172;28;20031;-67
2021/08/17 07:53:40;;;;;;;45.75;20.98;;;16.50;99.90;;;;;;5094630;28;20099;-68
2021/08/17 07:56:05;;;;;;;39.42;21.20;;;16.50;99.90;;;;;;5094703;28;20419;-67
2021/08/17 07:58:31;;;;;;;47.22;22.35;;;16.40;99.90;;;;;;5093595;28;20036;-67
2021/08/17 08:00:56;;;;;;;40.28;21.40;;;16.70;99.90;;;;;;5095137;28;20087;-67
2021/08/17 08:03:22;;;;;;;40.30;20.83;;;16.90;99.90;;;;;;5094697;28;20423;-67
2021/08/17 08:05:47;;;;;;;44.10;22.25;;;17.00;99.90;;;;;;5095028;28;20040;-67
2021/08/17 08:08:13;;;;;;;44.03;22.90;;;17.00;99.90;;;;;;5096738;28;20384;-67
2021/08/17 08:10:42;;;;;;;45.70;22.48;;;16.80;99.90;;;;;;5077108;28;20039;-69
2021/08/17 08:13:08;;;;;;;43.00;21.42;;;16.80;99.90;;;;;;5057179;28;20489;-68
2021/08/17 08:15:34;;;;;;;41.47;22.45;;;16.90;99.90;;;;;;5073055;28;20112;-66
2021/08/17 08:18:00;;;;;;;46.60;24.00;;;16.70;99.90;;;;;;5073458;28;20100;-67
2021/08/17 08:20:25;;;;;;;43.53;23.63;;;16.60;99.90;;;;;;5080366;28;20027;-66
2021/08/17 08:22:51;;;;;;;38.70;23.77;;;16.40;99.90;;;;;;5093352;28;20465;-66
2021/08/17 08:25:17;;;;;;;37.08;22.25;;;16.30;99.90;;;;;;5072219;28;20050;-67
2021/08/17 08:27:43;;;;;;;48.13;24.77;;;16.30;99.90;;;;;;5073328;28;20017;-67
2021/08/17 08:30:10;;;;;;;41.92;23.33;;;16.30;99.90;;;;;;5081729;28;20077;-67
2021/08/17 08:32:40;;;;;;;37.42;21.33;;;16.40;99.90;;;;;;5094242;28;20533;-67
2021/08/17 08:35:07;;;;;;;39.67;23.63;;;16.60;99.90;;;;;;5076792;28;20020;-67
2021/08/17 08:37:33;;;;;;;47.22;24.70;;;16.80;99.90;;;;;;5093744;28;20008;-67
2021/08/17 08:39:59;;;;;;;42.13;23.00;;;16.90;99.90;;;;;;5093797;28;20031;-67
2021/08/17 08:42:25;;;;;;;46.03;24.80;;;17.10;99.90;;;;;;5094194;28;20025;-67
2021/08/17 08:44:52;;;;;;;49.72;24.60;;;17.10;99.90;;;;;;5094097;28;20103;-67
2021/08/17 08:47:18;;;;;;;48.30;27.02;;;17.30;99.90;;;;;;5093971;28;20024;-67
2021/08/17 08:49:46;;;;;;;53.15;26.58;;;17.30;99.90;;;;;;5094379;28;20419;-67
2021/08/17 08:52:12;;;;;;;51.45;28.52;;;17.30;99.90;;;;;;5093944;28;20040;-67
2021/08/17 08:54:37;;;;;;;47.45;27.73;;;17.30;99.90;;;;;;5094272;28;20024;-67
2021/08/17 08:57:03;;;;;;;48.70;27.67;;;17.50;99.90;;;;;;5094241;28;20043;-67
2021/08/17 08:59:29;;;;;;;43.95;27.00;;;17.30;99.90;;;;;;5093925;28;20024;-67
2021/08/17 09:02:17;;;;;;;48.92;28.25;;;17.30;99.90;;;;;;5093222;28;20036;-67
2021/08/17 09:04:52;;;;;;;48.65;26.73;;;17.30;99.90;;;;;;5093584;28;20051;-67
2021/08/17 09:07:38;;;;;;;47.25;28.10;;;17.40;99.90;;;;;;5092153;28;20453;-67
2021/08/17 09:12:48;;;;;;;52.67;29.70;;;17.60;99.90;;;;;;5071510;28;20407;-68
2021/08/17 09:15:18;;;;;;;56.15;31.45;;;17.60;99.90;;;;;;5071149;28;20077;-68
2021/08/17 09:17:56;;;;;;;54.35;31.80;;;17.40;99.90;;;;;;5052613;28;20116;-67
2021/08/17 09:20:29;;;;;;;53.90;32.97;;;17.20;99.90;;;;;;5070542;28;20021;-67
2021/08/17 09:22:55;;;;;;;52.40;30.95;;;17.10;99.90;;;;;;5070500;28;20048;-67
2021/08/17 09:25:31;;;;;;;51.35;30.65;;;17.20;99.90;;;;;;5070152;28;20079;-67
2021/08/17 09:28:17;;;;;;;50.60;29.52;;;17.30;99.90;;;;;;5067779;28;20024;-67
2021/08/17 09:30:42;;;;;;;51.90;30.77;;;17.40;99.90;;;;;;5069890;28;20060;-66
2021/08/17 09:33:13;;;;;;;50.47;30.58;;;17.50;99.90;;;;;;5070800;28;20478;-67
2021/08/17 09:35:38;;;;;;;52.03;28.00;;;17.60;99.90;;;;;;5070742;28;20029;-67
2021/08/17 09:38:08;;;;;;;44.17;28.27;;;17.50;99.90;;;;;;5070404;28;20347;-67
2021/08/17 09:40:34;;;;;;;46.88;28.90;;;17.60;99.90;;;;;;5068578;28;20043;-65
2021/08/17 09:43:18;;;;;;;47.45;28.55;;;17.70;99.90;;;;;;5048910;28;20047;-67
2021/08/17 09:45:46;;;;;;;48.15;29.02;;;18.60;99.90;;;;;;5049261;28;20022;-68
2021/08/17 09:48:13;;;;;;;47.97;30.00;;;18.50;99.90;;;;;;5069169;28;20033;-67
2021/08/17 09:50:41;;;;;;;45.65;30.15;;;18.10;99.90;;;;;;5068838;28;20063;-67
2021/08/17 09:53:12;;;;;;;45.78;27.80;;;18.00;99.90;;;;;;5070174;28;20462;-68
2021/08/17 09:55:48;;;;;;;48.70;29.23;;;18.10;99.90;;;;;;5069487;28;20021;-68
2021/08/17 09:58:34;;;;;;;46.13;30.17;;;18.20;99.90;;;;;;5069466;28;20023;-68
2021/08/17 10:01:05;;;;;;;46.72;29.50;;;18.00;99.90;;;;;;5069773;28;20021;-68
2021/08/17 10:03:32;;;;;;;48.53;30.85;;;18.10;99.90;;;;;;5069779;28;20534;-68
2021/08/17 10:05:58;;;;;;;52.17;31.25;;;17.90;99.90;;;;;;5069763;28;20036;-68
2021/08/17 10:08:26;;;;;;;61.38;36.83;;;17.70;99.90;;;;;;5069885;28;20104;-68
2021/08/17 10:10:53;;;;;;;46.72;30.58;;;17.40;99.90;;;;;;5065346;28;20075;-68
2021/08/17 10:13:22;;;;;;;53.65;33.38;;;17.40;99.90;;;;;;5068097;28;20078;-68
2021/08/17 10:15:49;;;;;;;54.22;32.85;;;17.30;99.90;;;;;;5069775;28;20467;-68
2021/08/17 10:18:22;;;;;;;49.22;29.17;;;17.10;99.90;;;;;;5069467;28;20421;-68
2021/08/17 10:20:50;;;;;;;56.30;32.40;;;17.10;99.90;;;;;;5069823;28;20374;-68
2021/08/17 10:23:18;;;;;;;51.30;32.60;;;17.10;99.90;;;;;;5061096;28;20032;-68
2021/08/17 10:25:47;;;;;;;55.17;31.05;;;17.20;99.90;;;;;;5056479;28;20417;-68
2021/08/17 10:28:34;;;;;;;47.15;29.92;;;17.30;99.90;;;;;;5056245;28;20021;-67
2021/08/17 10:34:12;;;;;;;43.00;26.70;;;17.80;99.90;;;;;;5111974;27;20393;-68
2021/08/17 10:36:42;;;;;;;43.15;24.63;;;17.70;99.90;;;;;;5111302;28;20059;-68
2021/08/17 10:39:30;;;;;;;38.45;23.02;;;17.60;99.90;;;;;;5110800;28;20039;-67
2021/08/17 10:41:55;;;;;;;40.25;22.42;;;17.50;99.90;;;;;;5110993;28;20023;-67
2021/08/17 10:44:23;;;;;;;42.42;23.35;;;17.60;99.90;;;;;;5110778;28;20036;-68
2021/08/17 10:46:55;;;;;;;35.20;22.55;;;17.70;99.90;;;;;;5110700;28;20046;-67
2021/08/17 10:49:25;;;;;;;40.85;22.90;;;17.60;99.90;;;;;;5111435;28;20019;-67
2021/08/17 10:51:52;;;;;;;37.40;22.08;;;17.70;99.90;;;;;;5111295;28;20392;-68
2021/08/17 10:54:18;;;;;;;40.75;22.27;;;18.20;99.90;;;;;;5109928;28;20405;-68
2021/08/17 10:56:47;;;;;;;42.22;23.05;;;18.20;99.90;;;;;;5110455;28;20028;-68
2021/08/17 10:59:14;;;;;;;45.17;26.20;;;18.20;99.90;;;;;;5108837;28;20028;-68
2021/08/17 11:01:47;;;;;;;46.85;27.27;;;18.00;99.90;;;;;;5110643;28;20036;-69
2021/08/17 11:06:55;;;;;;;47.10;27.52;;;17.80;99.90;;;;;;5111963;27;20412;-68
2021/08/17 11:09:38;;;;;;;47.53;26.83;;;17.50;99.90;;;;;;5111722;28;20027;-68
2021/08/17 11:12:08;;;;;;;44.05;27.10;;;17.60;99.90;;;;;;5111348;28;20242;-67
2021/08/17 11:14:35;;;;;;;48.78;26.92;;;17.50;99.90;;;;;;5109739;28;20028;-68
2021/08/17 11:19:45;;;;;;;49.15;27.27;;;17.50;99.90;;;;;;5071356;28;20402;-68
2021/08/17 11:22:14;;;;;;;42.53;25.70;;;17.50;99.90;;;;;;5069366;28;20033;-68
2021/08/17 11:24:43;;;;;;;48.33;25.85;;;17.50;99.90;;;;;;5071085;28;20355;-68
2021/08/17 11:27:12;;;;;;;38.40;24.55;;;17.50;99.90;;;;;;5069624;28;20485;-67
2021/08/17 11:29:43;;;;;;;42.55;25.15;;;17.50;99.90;;;;;;5071023;28;20513;-67
2021/08/17 11:32:23;;;;;;;48.33;24.85;;;17.40;99.90;;;;;;5069311;28;20474;-67
2021/08/17 11:34:49;;;;;;;43.45;24.73;;;17.50;99.90;;;;;;5067125;28;20119;-72
2021/08/17 11:37:16;;;;;;;46.05;24.27;;;17.60;99.90;;;;;;5068240;28;20028;-72
2021/08/17 11:39:48;;;;;;;46.45;23.33;;;17.50;99.90;;;;;;5070552;28;20021;-72
2021/08/17 11:42:17;;;;;;;44.13;22.90;;;17.50;99.90;;;;;;5070102;28;20021;-72
2021/08/17 11:44:44;;;;;;;42.03;21.27;;;17.50;99.90;;;;;;5068944;28;20009;-72
2021/08/17 11:47:13;;;;;;;34.85;20.02;;;17.50;99.90;;;;;;5069597;28;20075;-73
2021/08/17 11:49:40;;;;;;;39.17;19.63;;;17.50;99.90;;;;;;5069697;28;20035;-73
2021/08/17 11:52:10;;;;;;;44.35;21.08;;;17.60;99.90;;;;;;5069574;28;20526;-72
2021/08/17 11:54:43;;;;;;;33.65;19.05;;;17.50;99.90;;;;;;5069857;28;20033;-72
2021/08/17 11:57:08;;;;;;;35.20;18.70;;;17.40;99.90;;;;;;5069750;28;20017;-72
2021/08/17 11:59:46;;;;;;;28.00;16.30;;;17.60;99.90;;;;;;5069474;28;20098;-72
2021/08/17 12:02:19;;;;;;;38.33;18.02;;;17.80;99.90;;;;;;5068723;28;20020;-71
2021/08/17 12:04:50;;;;;;;29.17;16.75;;;17.90;99.90;;;;;;5064678;28;20048;-72
2021/08/17 12:07:15;;;;;;;31.55;16.55;;;17.90;99.90;;;;;;5068534;28;20036;-72
2021/08/17 12:09:43;;;;;;;28.05;16.77;;;17.90;99.90;;;;;;5068892;28;20063;-72
2021/08/17 12:12:11;;;;;;;27.13;15.70;;;17.90;99.90;;;;;;5068929;28;20017;-72
2021/08/17 12:14:37;;;;;;;27.13;14.75;;;17.80;99.90;;;;;;5068755;28;20025;-72
2021/08/17 12:17:04;;;;;;;24.90;14.55;;;17.70;99.90;;;;;;5069030;28;20017;-72
2021/08/17 12:19:31;;;;;;;25.38;13.23;;;17.80;99.90;;;;;;5068434;28;20045;-72
2021/08/17 12:21:58;;;;;;;29.95;14.38;;;17.80;99.90;;;;;;5069202;28;20071;-72
2021/08/17 12:24:30;;;;;;;28.25;14.38;;;17.60;99.90;;;;;;5068999;28;20021;-72
2021/08/17 12:27:01;;;;;;;24.85;13.02;;;17.70;99.90;;;;;;5068013;28;20076;-71
2021/08/17 12:29:37;;;;;;;21.70;12.95;;;17.80;99.90;;;;;;5064680;28;20025;-71
2021/08/17 12:32:16;;;;;;;27.75;13.68;;;17.80;99.90;;;;;;5055807;28;20021;-72
2021/08/17 12:34:44;;;;;;;24.38;13.50;;;17.80;99.90;;;;;;5055838;28;20033;-71
2021/08/17 12:37:36;;;;;;;24.80;14.60;;;17.80;99.90;;;;;;5055732;28;20025;-72
2021/08/17 12:40:05;;;;;;;22.73;13.27;;;17.80;99.90;;;;;;5055331;28;20036;-72
2021/08/17 12:42:40;;;;;;;24.63;14.00;;;18.10;99.90;;;;;;5055754;28;20017;-72